Time;durP1;ratioP1;P1;durP2;ratioP2;P2;SDS_P1;SDS_P2;PMS_P1;PMS_P2;Temp;Humidity;BMP_temperature;BMP_pressure;BME280_temperature;BME280_humidity;BME280_pressure;Samples;Min_cycle;Max_cycle;Signal;HPM_P1;HPM_P2
2023/09/15 00:00:29;;;;;;;0.00;0.00;;;16.70;99.90;;;;;;4948144;29;20058;-76
2023/09/15 00:02:56;;;;;;;0.00;0.00;;;16.70;99.90;;;;;;4946076;29;20023;-76
2023/09/15 00:05:29;;;;;;;0.20;0.20;;;16.60;99.90;;;;;;4951069;29;20597;-76
2023/09/15 00:07:57;;;;;;;0.00;0.00;;;16.60;99.90;;;;;;4947894;28;20862;-76
2023/09/15 00:10:22;;;;;;;0.00;0.00;;;16.60;99.90;;;;;;4948260;28;20762;-76
2023/09/15 00:12:48;;;;;;;0.07;0.07;;;16.50;99.90;;;;;;4948880;29;20039;-76
2023/09/15 00:15:15;;;;;;;0.00;0.00;;;16.60;99.90;;;;;;4950041;29;20370;-76
2023/09/15 00:17:41;;;;;;;;;;;16.50;99.90;;;;;;4949726;29;20887;-76
2023/09/15 00:20:18;;;;;;;0.10;0.10;;;16.40;99.90;;;;;;4949030;28;19921;-76
2023/09/15 00:22:51;;;;;;;0.00;0.00;;;16.40;99.90;;;;;;4950423;28;20089;-75
2023/09/15 00:25:29;;;;;;;0.00;0.00;;;16.40;99.90;;;;;;4944988;28;20063;-76
2023/09/15 00:27:57;;;;;;;0.08;0.08;;;16.30;99.90;;;;;;4946384;28;20055;-75
2023/09/15 00:30:24;;;;;;;0.00;0.00;;;16.20;99.90;;;;;;4962221;28;20118;-75
2023/09/15 00:32:51;;;;;;;0.00;0.00;;;16.20;99.90;;;;;;4950906;29;20036;-76
2023/09/15 00:35:19;;;;;;;0.00;0.00;;;16.20;99.90;;;;;;4948639;29;20082;-76
2023/09/15 00:37:49;;;;;;;0.00;0.00;;;16.30;99.90;;;;;;4950971;29;20059;-77
2023/09/15 00:40:19;;;;;;;0.00;0.00;;;16.20;99.90;;;;;;4949321;29;20094;-76
2023/09/15 00:42:48;;;;;;;0.00;0.00;;;16.20;99.90;;;;;;4945054;29;20045;-76
2023/09/15 00:45:14;;;;;;;0.00;0.00;;;16.10;99.90;;;;;;4952809;28;20027;-76
2023/09/15 00:47:46;;;;;;;0.00;0.00;;;16.10;99.90;;;;;;4949480;29;20533;-75
2023/09/15 00:50:14;;;;;;;0.00;0.00;;;16.10;99.90;;;;;;4941533;29;20121;-75
2023/09/15 00:52:43;;;;;;;0.00;0.00;;;16.00;99.90;;;;;;4942503;29;20103;-76
2023/09/15 00:55:10;;;;;;;0.00;0.00;;;16.00;99.90;;;;;;4942730;29;20058;-76
2023/09/15 00:57:39;;;;;;;0.70;0.70;;;16.00;99.90;;;;;;4945263;29;20035;-76
2023/09/15 01:00:12;;;;;;;0.10;0.10;;;16.00;99.90;;;;;;4946783;28;20506;-76
2023/09/15 01:02:42;;;;;;;0.00;0.00;;;16.00;99.90;;;;;;4960297;28;20528;-76
2023/09/15 01:05:19;;;;;;;0.00;0.00;;;16.00;99.90;;;;;;4947503;29;20042;-76
2023/09/15 01:07:47;;;;;;;0.00;0.00;;;15.90;99.90;;;;;;4949111;28;20061;-76
2023/09/15 01:10:14;;;;;;;0.00;0.00;;;16.00;99.90;;;;;;4947186;28;20095;-76
2023/09/15 01:12:40;;;;;;;0.00;0.00;;;15.90;99.90;;;;;;4949548;29;20580;-76
2023/09/15 01:15:07;;;;;;;0.00;0.00;;;15.90;99.90;;;;;;4962590;28;20313;-76
2023/09/15 01:17:45;;;;;;;0.00;0.00;;;15.90;99.90;;;;;;4941609;29;20762;-76
2023/09/15 01:20:50;;;;;;;0.03;0.03;;;15.90;99.90;;;;;;4945531;28;20046;-77
2023/09/15 01:23:31;;;;;;;1.85;1.02;;;15.80;99.90;;;;;;4942922;29;20728;-77
2023/09/15 01:26:29;;;;;;;0.30;0.30;;;15.70;99.90;;;;;;4942023;29;20592;-76
2023/09/15 01:29:25;;;;;;;0.13;0.13;;;15.70;99.90;;;;;;4944785;28;20157;-76
2023/09/15 01:31:52;;;;;;;0.00;0.00;;;15.60;99.90;;;;;;4944525;29;20043;-76
2023/09/15 01:34:18;;;;;;;0.00;0.00;;;15.60;99.90;;;;;;4948949;29;20138;-76
2023/09/15 01:36:44;;;;;;;0.00;0.00;;;15.60;99.90;;;;;;4946970;29;20106;-76
2023/09/15 01:39:10;;;;;;;0.00;0.00;;;15.60;99.90;;;;;;4945124;29;20892;-77
2023/09/15 01:41:36;;;;;;;0.00;0.00;;;15.50;99.90;;;;;;4945758;29;20032;-76
2023/09/15 01:44:03;;;;;;;0.10;0.10;;;15.60;99.90;;;;;;4947398;29;20133;-77
2023/09/15 01:46:28;;;;;;;;;;;15.50;99.90;;;;;;4948245;29;20030;-76
2023/09/15 01:48:57;;;;;;;0.00;0.00;;;15.50;99.90;;;;;;4949389;28;19915;-76
2023/09/15 01:51:23;;;;;;;0.00;0.00;;;15.40;99.90;;;;;;4948909;29;20037;-76
2023/09/15 01:53:51;;;;;;;0.00;0.00;;;15.40;99.90;;;;;;4945393;29;20101;-76
2023/09/15 01:56:18;;;;;;;0.00;0.00;;;15.40;99.90;;;;;;4934953;29;20426;-76
2023/09/15 01:58:45;;;;;;;0.00;0.00;;;15.40;99.90;;;;;;4948968;29;20027;-76
2023/09/15 02:01:11;;;;;;;0.00;0.00;;;15.30;99.90;;;;;;4946445;29;20035;-76
2023/09/15 02:03:37;;;;;;;0.10;0.10;;;15.30;99.90;;;;;;4936984;29;20035;-76
2023/09/15 02:06:04;;;;;;;0.00;0.00;;;15.20;99.90;;;;;;4937025;29;20115;-76
2023/09/15 02:08:31;;;;;;;0.00;0.00;;;15.30;99.90;;;;;;4946631;28;20055;-77
2023/09/15 02:10:57;;;;;;;0.00;0.00;;;15.20;99.90;;;;;;4942914;29;20055;-76
2023/09/15 02:13:23;;;;;;;0.00;0.00;;;15.30;99.90;;;;;;4949296;29;20137;-76
2023/09/15 02:15:53;;;;;;;0.00;0.00;;;15.30;99.90;;;;;;4948831;29;20031;-76
2023/09/15 02:18:18;;;;;;;0.10;0.10;;;15.20;99.90;;;;;;4946205;29;20031;-76
2023/09/15 02:20:52;;;;;;;0.00;0.00;;;15.20;99.90;;;;;;4949066;29;20039;-78
2023/09/15 02:23:17;;;;;;;0.00;0.00;;;15.10;99.90;;;;;;4946814;29;20027;-76
2023/09/15 02:25:43;;;;;;;0.40;0.27;;;15.10;99.90;;;;;;4959461;28;20035;-77
2023/09/15 02:28:09;;;;;;;0.00;0.00;;;15.20;99.90;;;;;;4949478;28;20027;-77
2023/09/15 02:30:37;;;;;;;0.00;0.00;;;15.10;99.90;;;;;;4953119;28;20063;-76
2023/09/15 02:33:03;;;;;;;0.00;0.00;;;15.10;99.90;;;;;;4952467;29;20032;-76
2023/09/15 02:35:29;;;;;;;0.00;0.00;;;15.10;99.90;;;;;;4968137;28;20410;-76
2023/09/15 02:37:54;;;;;;;0.00;0.00;;;15.00;99.90;;;;;;4953283;29;20039;-76
2023/09/15 02:40:24;;;;;;;0.00;0.00;;;15.00;99.90;;;;;;4949888;28;20058;-76
2023/09/15 02:42:50;;;;;;;0.30;0.30;;;15.00;99.90;;;;;;4951527;28;20023;-76
2023/09/15 02:45:16;;;;;;;0.00;0.00;;;15.00;99.90;;;;;;4952116;28;20035;-76
2023/09/15 02:47:42;;;;;;;0.00;0.00;;;14.90;99.90;;;;;;4952326;28;20114;-77
2023/09/15 02:50:08;;;;;;;0.00;0.00;;;14.90;99.90;;;;;;4952286;28;20554;-76
2023/09/15 02:52:34;;;;;;;0.00;0.00;;;14.80;99.90;;;;;;4952428;29;20817;-76
2023/09/15 02:55:01;;;;;;;0.13;0.13;;;14.80;99.90;;;;;;4952172;29;20789;-77
2023/09/15 02:57:28;;;;;;;0.00;0.00;;;14.80;99.90;;;;;;4952173;28;20031;-76
2023/09/15 02:59:54;;;;;;;0.05;0.05;;;14.80;99.90;;;;;;4952180;29;20031;-76
2023/09/15 03:02:21;;;;;;;0.00;0.00;;;14.90;99.90;;;;;;4951682;29;20032;-76
2023/09/15 03:04:47;;;;;;;0.10;0.10;;;14.90;99.90;;;;;;4952145;29;20055;-76
2023/09/15 03:07:13;;;;;;;0.00;0.00;;;14.80;99.90;;;;;;4952494;28;20435;-76
2023/09/15 03:09:39;;;;;;;0.00;0.00;;;14.80;99.90;;;;;;4951281;28;20167;-77
2023/09/15 03:12:05;;;;;;;0.00;0.00;;;14.70;99.90;;;;;;4948549;29;20875;-77
2023/09/15 03:14:31;;;;;;;0.00;0.00;;;14.60;99.90;;;;;;4964830;28;20023;-77
2023/09/15 03:16:56;;;;;;;0.00;0.00;;;14.60;99.90;;;;;;4950457;28;20019;-76
2023/09/15 03:19:22;;;;;;;0.00;0.00;;;14.70;99.90;;;;;;4951284;29;20270;-77
2023/09/15 03:21:48;;;;;;;0.10;0.10;;;14.60;99.90;;;;;;4952065;28;20055;-77
2023/09/15 03:24:14;;;;;;;0.00;0.00;;;14.60;99.90;;;;;;4951372;28;20146;-75
2023/09/15 03:26:40;;;;;;;0.00;0.00;;;14.60;99.90;;;;;;4951050;29;20057;-76
2023/09/15 03:29:06;;;;;;;2.10;0.43;;;14.60;99.90;;;;;;4952745;28;20023;-76
2023/09/15 03:31:32;;;;;;;0.00;0.00;;;14.50;99.90;;;;;;4945067;29;20039;-75
2023/09/15 03:33:58;;;;;;;0.10;0.10;;;14.50;99.90;;;;;;4949437;29;20107;-76
2023/09/15 03:36:28;;;;;;;0.40;0.40;;;14.50;99.90;;;;;;4948001;29;20024;-77
2023/09/15 03:38:54;;;;;;;0.10;0.10;;;14.50;99.90;;;;;;4944664;29;20030;-76
2023/09/15 03:41:20;;;;;;;0.00;0.00;;;14.50;99.90;;;;;;4947062;29;20506;-76
2023/09/15 03:43:46;;;;;;;5.80;1.50;;;14.50;99.90;;;;;;4944848;29;20024;-77
2023/09/15 03:46:11;;;;;;;0.10;0.10;;;14.50;99.90;;;;;;4945680;29;20028;-77
2023/09/15 03:48:37;;;;;;;0.03;0.03;;;14.50;99.90;;;;;;4950409;28;20529;-77
2023/09/15 03:51:03;;;;;;;0.00;0.00;;;14.40;99.90;;;;;;4944570;28;20483;-77
2023/09/15 03:53:28;;;;;;;0.13;0.13;;;14.40;99.90;;;;;;4951122;29;20043;-75
2023/09/15 03:55:54;;;;;;;0.00;0.00;;;14.50;99.90;;;;;;4948449;29;20063;-76
2023/09/15 03:58:20;;;;;;;0.00;0.00;;;14.40;99.90;;;;;;4947582;29;20082;-77
2023/09/15 04:00:45;;;;;;;0.00;0.00;;;14.40;99.90;;;;;;4946282;29;20126;-76
2023/09/15 04:03:11;;;;;;;0.25;0.25;;;14.40;99.90;;;;;;4947228;29;20035;-76
2023/09/15 04:05:38;;;;;;;0.00;0.00;;;14.40;99.90;;;;;;4950319;29;20038;-76
2023/09/15 04:08:03;;;;;;;;;;;14.40;99.90;;;;;;4949440;28;20031;-76
2023/09/15 04:10:29;;;;;;;0.00;0.00;;;14.40;99.90;;;;;;4946281;29;19964;-76
2023/09/15 04:12:55;;;;;;;0.00;0.00;;;14.30;99.90;;;;;;4947970;29;20109;-76
2023/09/15 04:15:20;;;;;;;0.00;0.00;;;14.20;99.90;;;;;;4949267;29;20035;-76
2023/09/15 04:17:46;;;;;;;0.10;0.10;;;14.30;99.90;;;;;;4950638;29;20114;-76
2023/09/15 04:20:12;;;;;;;0.00;0.00;;;14.30;99.90;;;;;;4947327;28;20039;-76
2023/09/15 04:22:40;;;;;;;0.10;0.10;;;14.30;99.90;;;;;;4949779;29;20046;-76
2023/09/15 04:25:07;;;;;;;0.10;0.10;;;14.20;99.90;;;;;;4948471;29;20031;-76
2023/09/15 04:27:34;;;;;;;0.00;0.00;;;14.30;99.90;;;;;;4964920;28;20175;-76
2023/09/15 04:30:00;;;;;;;0.00;0.00;;;14.30;99.90;;;;;;4944747;28;20031;-76
2023/09/15 04:32:26;;;;;;;0.00;0.00;;;14.30;99.90;;;;;;4962203;28;20407;-76
2023/09/15 04:34:52;;;;;;;0.03;0.03;;;14.30;99.90;;;;;;4946547;28;20027;-76
2023/09/15 04:37:18;;;;;;;0.10;0.10;;;14.30;99.90;;;;;;4950507;28;20368;-76
2023/09/15 04:39:44;;;;;;;0.10;0.10;;;14.30;99.90;;;;;;4948741;28;20031;-77
2023/09/15 04:42:10;;;;;;;0.00;0.00;;;14.20;99.90;;;;;;4950771;29;20030;-79
2023/09/15 04:44:36;;;;;;;0.00;0.00;;;14.20;99.90;;;;;;4948827;29;20035;-76
2023/09/15 04:47:03;;;;;;;0.00;0.00;;;14.20;99.90;;;;;;4963703;28;20039;-75
2023/09/15 04:49:28;;;;;;;0.10;0.10;;;14.20;99.90;;;;;;4950030;28;20037;-75
2023/09/15 04:51:55;;;;;;;0.10;0.10;;;14.10;99.90;;;;;;4965332;28;20122;-75
2023/09/15 04:54:20;;;;;;;0.10;0.10;;;14.10;99.90;;;;;;4950420;29;20024;-74
2023/09/15 04:56:46;;;;;;;0.00;0.00;;;14.10;99.90;;;;;;4950758;29;20263;-75
2023/09/15 04:59:19;;;;;;;0.07;0.07;;;14.10;99.90;;;;;;4949857;29;20487;-75
2023/09/15 05:01:46;;;;;;;0.10;0.10;;;14.10;99.90;;;;;;4947391;29;20568;-75
2023/09/15 05:04:15;;;;;;;0.00;0.00;;;14.00;99.90;;;;;;4950287;29;20031;-75
2023/09/15 05:06:42;;;;;;;0.05;0.05;;;14.00;99.90;;;;;;4949187;28;20790;-76
2023/09/15 05:09:11;;;;;;;0.00;0.00;;;14.00;99.90;;;;;;4949361;28;20050;-74
2023/09/15 05:11:37;;;;;;;0.08;0.08;;;14.00;99.90;;;;;;4947611;29;20095;-74
2023/09/15 05:14:04;;;;;;;0.10;0.10;;;14.00;99.90;;;;;;4950043;29;20051;-76
2023/09/15 05:16:30;;;;;;;0.00;0.00;;;14.10;99.90;;;;;;4949251;29;20035;-77
2023/09/15 05:18:56;;;;;;;0.10;0.10;;;14.00;99.90;;;;;;4943132;29;20019;-77
2023/09/15 05:21:22;;;;;;;0.00;0.00;;;14.10;99.90;;;;;;4942640;28;20039;-77
2023/09/15 05:23:48;;;;;;;0.00;0.00;;;14.00;99.90;;;;;;4949701;29;20034;-79
2023/09/15 05:26:13;;;;;;;0.03;0.03;;;14.10;99.90;;;;;;4949623;29;20421;-79
2023/09/15 05:28:39;;;;;;;0.00;0.00;;;14.00;99.90;;;;;;4947803;28;20122;-79
2023/09/15 05:31:07;;;;;;;0.00;0.00;;;14.00;99.90;;;;;;4949660;28;20042;-79
2023/09/15 05:33:33;;;;;;;0.00;0.00;;;13.90;99.90;;;;;;4940890;28;20733;-78
2023/09/15 05:35:59;;;;;;;0.07;0.07;;;14.10;99.90;;;;;;4948618;29;20108;-77
2023/09/15 05:38:25;;;;;;;0.03;0.03;;;14.00;99.90;;;;;;4949842;29;20031;-76
2023/09/15 05:40:51;;;;;;;0.00;0.00;;;14.00;99.90;;;;;;4949532;29;20030;-77
2023/09/15 05:43:18;;;;;;;0.10;0.10;;;14.00;99.90;;;;;;4945427;28;20039;-78
2023/09/15 05:45:45;;;;;;;0.00;0.00;;;14.10;99.90;;;;;;4958153;28;20138;-78
2023/09/15 05:48:13;;;;;;;0.00;0.00;;;14.60;99.90;;;;;;4939965;28;20047;-78
2023/09/15 05:50:39;;;;;;;0.00;0.00;;;14.80;99.90;;;;;;4954495;28;20027;-79
2023/09/15 05:53:05;;;;;;;0.00;0.00;;;14.80;99.90;;;;;;4939553;29;20027;-79
2023/09/15 05:55:32;;;;;;;0.00;0.00;;;15.00;99.90;;;;;;4942946;29;20041;-78
2023/09/15 05:57:58;;;;;;;;;;;15.20;99.90;;;;;;4948658;29;20038;-74
2023/09/15 06:00:24;;;;;;;0.03;0.03;;;15.50;99.90;;;;;;4937782;29;19915;-74
2023/09/15 06:02:49;;;;;;;0.30;0.30;;;15.90;99.90;;;;;;4948141;29;20609;-78
2023/09/15 06:05:17;;;;;;;0.00;0.00;;;16.10;99.90;;;;;;4944538;29;20451;-76
2023/09/15 06:07:43;;;;;;;0.00;0.00;;;16.30;99.90;;;;;;4939903;28;20035;-77
2023/09/15 06:10:09;;;;;;;0.00;0.00;;;16.60;99.90;;;;;;4940466;29;20644;-78
2023/09/15 06:12:35;;;;;;;0.00;0.00;;;17.00;99.90;;;;;;4937116;29;20122;-78
2023/09/15 06:15:00;;;;;;;0.00;0.00;;;17.30;99.90;;;;;;4940557;28;20131;-77
2023/09/15 06:17:27;;;;;;;0.00;0.00;;;17.50;99.90;;;;;;4944992;29;20028;-77
2023/09/15 06:19:53;;;;;;;;;;;17.70;99.90;;;;;;4948361;29;20055;-77
2023/09/15 06:22:19;;;;;;;0.00;0.00;;;18.10;99.90;;;;;;4943281;28;19918;-77
2023/09/15 06:24:45;;;;;;;0.00;0.00;;;18.30;99.90;;;;;;4948151;28;20050;-77
2023/09/15 06:27:10;;;;;;;0.00;0.00;;;18.40;99.90;;;;;;4948690;29;20024;-77
2023/09/15 06:29:36;;;;;;;0.10;0.10;;;18.70;99.90;;;;;;4949752;28;20062;-77
2023/09/15 06:32:02;;;;;;;0.00;0.00;;;19.10;99.90;;;;;;4963833;28;20035;-77
2023/09/15 06:34:27;;;;;;;0.00;0.00;;;19.20;99.50;;;;;;4964111;28;20086;-77
2023/09/15 06:36:53;;;;;;;0.00;0.00;;;19.50;98.70;;;;;;4949243;29;20063;-77
2023/09/15 06:39:23;;;;;;;0.00;0.00;;;19.60;98.10;;;;;;4948749;29;20031;-77
2023/09/15 06:41:49;;;;;;;0.00;0.00;;;19.70;97.60;;;;;;4948882;29;20031;-77
2023/09/15 06:44:15;;;;;;;0.00;0.00;;;20.10;97.00;;;;;;4948599;28;20028;-77
2023/09/15 06:46:41;;;;;;;0.00;0.00;;;20.30;96.40;;;;;;4947153;28;20039;-77
2023/09/15 06:49:06;;;;;;;0.00;0.00;;;20.70;95.20;;;;;;4948523;28;20065;-76
2023/09/15 06:51:32;;;;;;;0.00;0.00;;;20.70;94.80;;;;;;4948239;29;20042;-77
2023/09/15 06:53:59;;;;;;;0.00;0.00;;;21.00;94.60;;;;;;4948793;29;20059;-78
2023/09/15 06:56:25;;;;;;;0.00;0.00;;;21.40;93.50;;;;;;4949031;29;20034;-77
2023/09/15 06:58:51;;;;;;;0.00;0.00;;;21.50;93.00;;;;;;4952514;28;20033;-77
2023/09/15 07:01:17;;;;;;;0.00;0.00;;;21.40;92.80;;;;;;4953010;29;20055;-77
2023/09/15 07:03:42;;;;;;;0.00;0.00;;;21.60;92.00;;;;;;4953335;29;20039;-77
2023/09/15 07:06:08;;;;;;;0.00;0.00;;;21.60;91.90;;;;;;4952636;29;20035;-78
2023/09/15 07:08:34;;;;;;;0.00;0.00;;;21.60;92.10;;;;;;4960139;28;20485;-78
2023/09/15 07:10:59;;;;;;;0.00;0.00;;;21.80;91.90;;;;;;4940865;29;20091;-78
2023/09/15 07:13:25;;;;;;;0.00;0.00;;;21.90;91.40;;;;;;4946390;29;20039;-77
2023/09/15 07:15:51;;;;;;;0.00;0.00;;;22.10;90.40;;;;;;4944665;29;20114;-77
2023/09/15 07:18:16;;;;;;;0.00;0.00;;;22.30;90.60;;;;;;4944631;29;20111;-77
2023/09/15 07:20:42;;;;;;;0.00;0.00;;;22.30;91.20;;;;;;4942276;29;20039;-77
2023/09/15 07:23:08;;;;;;;0.00;0.00;;;23.00;90.20;;;;;;4939988;29;20268;-78
2023/09/15 07:25:34;;;;;;;0.00;0.00;;;22.60;89.20;;;;;;4944227;29;20035;-77
2023/09/15 07:27:59;;;;;;;0.00;0.00;;;22.20;90.60;;;;;;4947359;28;20846;-78
2023/09/15 07:30:25;;;;;;;0.00;0.00;;;22.10;90.60;;;;;;4946067;29;20035;-77
2023/09/15 07:32:51;;;;;;;0.00;0.00;;;22.00;90.50;;;;;;4951281;29;20028;-77
2023/09/15 07:35:17;;;;;;;0.00;0.00;;;22.20;90.10;;;;;;4950209;28;20090;-78
2023/09/15 07:37:43;;;;;;;0.00;0.00;;;22.90;87.80;;;;;;4951723;29;20110;-77
2023/09/15 07:40:09;;;;;;;0.00;0.00;;;23.20;86.60;;;;;;4949873;28;20031;-78
2023/09/15 07:42:35;;;;;;;;;;;23.40;86.40;;;;;;4958847;28;20042;-77
2023/09/15 07:45:02;;;;;;;0.00;0.00;;;23.60;84.90;;;;;;4947609;28;19997;-77
2023/09/15 07:47:27;;;;;;;0.00;0.00;;;23.90;83.90;;;;;;4944534;29;20036;-78
2023/09/15 07:49:53;;;;;;;0.00;0.00;;;24.00;82.80;;;;;;4947319;28;20027;-77
2023/09/15 07:52:19;;;;;;;0.00;0.00;;;24.30;80.80;;;;;;4948398;29;20089;-78
2023/09/15 07:54:45;;;;;;;0.00;0.00;;;24.30;80.80;;;;;;4948450;29;20031;-78
2023/09/15 07:57:11;;;;;;;0.00;0.00;;;24.80;79.50;;;;;;4948947;29;20530;-77
2023/09/15 07:59:37;;;;;;;0.00;0.00;;;24.70;80.10;;;;;;4963726;28;20326;-78
2023/09/15 08:02:06;;;;;;;0.00;0.00;;;25.10;80.00;;;;;;4947932;29;20035;-78
2023/09/15 08:04:31;;;;;;;0.00;0.00;;;25.70;77.60;;;;;;4949959;29;20058;-77
2023/09/15 08:06:57;;;;;;;0.00;0.00;;;26.30;75.60;;;;;;4950446;28;20059;-77
2023/09/15 08:09:23;;;;;;;0.00;0.00;;;26.20;74.70;;;;;;4958756;28;20166;-76
2023/09/15 08:11:49;;;;;;;0.00;0.00;;;25.40;75.10;;;;;;4949665;28;20034;-77
2023/09/15 08:14:14;;;;;;;0.00;0.00;;;25.60;75.20;;;;;;4941995;29;20098;-78
2023/09/15 08:16:40;;;;;;;0.00;0.00;;;24.90;77.60;;;;;;4940428;29;20028;-78
2023/09/15 08:19:06;;;;;;;0.00;0.00;;;25.30;77.10;;;;;;4945049;29;20351;-78
2023/09/15 08:21:32;;;;;;;0.00;0.00;;;26.00;73.90;;;;;;4945307;29;20044;-78
2023/09/15 08:23:58;;;;;;;0.00;0.00;;;27.00;71.30;;;;;;4965620;28;20033;-78
2023/09/15 08:26:25;;;;;;;0.00;0.00;;;27.80;69.20;;;;;;4953941;28;20067;-78
2023/09/15 08:28:51;;;;;;;0.00;0.00;;;28.20;67.50;;;;;;4948588;28;20023;-78
2023/09/15 08:31:17;;;;;;;0.00;0.00;;;27.60;68.30;;;;;;4960877;28;20058;-78
2023/09/15 08:33:42;;;;;;;0.00;0.00;;;28.00;68.70;;;;;;4960980;28;20066;-78
2023/09/15 08:36:08;;;;;;;0.00;0.00;;;27.50;66.80;;;;;;4942259;29;20075;-78
2023/09/15 08:38:34;;;;;;;0.00;0.00;;;28.30;67.70;;;;;;4946106;29;20086;-78
2023/09/15 08:41:05;;;;;;;0.00;0.00;;;29.50;64.60;;;;;;4943570;28;20044;-79
2023/09/15 08:43:32;;;;;;;0.00;0.00;;;30.10;64.10;;;;;;4948523;28;20035;-78
2023/09/15 08:45:59;;;;;;;0.00;0.00;;;30.40;64.20;;;;;;4947668;28;20809;-78
2023/09/15 08:48:29;;;;;;;0.00;0.00;;;30.40;63.60;;;;;;4947266;28;20024;-78
2023/09/15 08:50:58;;;;;;;0.00;0.00;;;30.40;61.80;;;;;;4946095;29;20059;-78
2023/09/15 08:53:24;;;;;;;0.00;0.00;;;29.50;62.60;;;;;;4947242;28;20142;-78
2023/09/15 08:55:51;;;;;;;0.00;0.00;;;30.10;63.30;;;;;;4949895;28;20039;-79
2023/09/15 08:58:17;;;;;;;0.00;0.00;;;30.70;62.00;;;;;;4949248;29;20768;-78
2023/09/15 09:00:42;;;;;;;;;;;31.10;60.90;;;;;;4950614;29;20035;-79
2023/09/15 09:03:12;;;;;;;0.00;0.00;;;30.70;60.80;;;;;;4949098;28;19910;-78
2023/09/15 09:05:40;;;;;;;0.00;0.00;;;30.70;60.60;;;;;;4952660;28;20506;-77
2023/09/15 09:08:09;;;;;;;0.00;0.00;;;30.00;59.60;;;;;;4953667;28;20375;-78
2023/09/15 09:10:34;;;;;;;0.00;0.00;;;31.20;59.80;;;;;;4943591;28;20027;-78
2023/09/15 09:13:00;;;;;;;0.00;0.00;;;32.20;58.40;;;;;;4934303;28;20166;-78
2023/09/15 09:15:31;;;;;;;0.00;0.00;;;32.40;58.20;;;;;;4938469;29;20090;-78
2023/09/15 09:17:57;;;;;;;0.00;0.00;;;33.00;58.10;;;;;;4958710;28;20030;-78
2023/09/15 09:20:27;;;;;;;0.00;0.00;;;32.10;55.70;;;;;;4940130;28;20774;-78
2023/09/15 09:22:53;;;;;;;0.00;0.00;;;32.40;57.90;;;;;;4942895;29;20039;-78
2023/09/15 09:25:26;;;;;;;0.00;0.00;;;30.90;55.70;;;;;;4948173;28;20063;-77
2023/09/15 09:27:52;;;;;;;0.00;0.00;;;31.60;56.70;;;;;;4942252;28;20078;-77
2023/09/15 09:30:18;;;;;;;0.00;0.00;;;32.30;53.60;;;;;;4958176;28;20425;-78
2023/09/15 09:32:44;;;;;;;0.00;0.00;;;32.00;54.10;;;;;;4953649;28;20039;-78
2023/09/15 09:35:12;;;;;;;0.00;0.00;;;32.10;54.10;;;;;;4944030;28;20096;-78
2023/09/15 09:37:38;;;;;;;0.00;0.00;;;32.70;53.90;;;;;;4944751;29;20027;-78
2023/09/15 09:40:06;;;;;;;0.00;0.00;;;32.20;52.80;;;;;;4949893;29;20034;-78
2023/09/15 09:42:34;;;;;;;0.00;0.00;;;31.80;54.40;;;;;;4940207;29;20040;-78
2023/09/15 09:45:00;;;;;;;0.00;0.00;;;32.30;52.70;;;;;;4948190;28;20027;-78
2023/09/15 09:47:26;;;;;;;0.00;0.00;;;31.40;52.80;;;;;;4945406;29;20091;-78
2023/09/15 09:49:52;;;;;;;0.00;0.00;;;30.70;54.50;;;;;;4945427;28;20035;-78
2023/09/15 09:52:17;;;;;;;0.00;0.00;;;32.00;54.70;;;;;;4946094;29;20073;-78
2023/09/15 09:54:44;;;;;;;0.00;0.00;;;33.00;51.90;;;;;;4961540;28;20067;-78
2023/09/15 09:57:09;;;;;;;;;;;32.30;52.40;;;;;;4946019;28;20043;-78
2023/09/15 09:59:38;;;;;;;0.00;0.00;;;31.20;53.10;;;;;;4946632;28;19911;-78
2023/09/15 10:02:04;;;;;;;0.25;0.25;;;30.10;54.60;;;;;;4944623;29;20672;-78
2023/09/15 10:04:29;;;;;;;0.00;0.00;;;30.00;53.40;;;;;;4947829;29;20035;-78
2023/09/15 10:06:56;;;;;;;0.00;0.00;;;29.00;54.50;;;;;;4947105;28;20028;-78
2023/09/15 10:09:22;;;;;;;;;;;28.40;56.30;;;;;;4958256;28;20035;-78
2023/09/15 10:11:48;;;;;;;0.00;0.00;;;28.90;55.30;;;;;;4941293;28;19915;-78
2023/09/15 10:14:14;;;;;;;0.00;0.00;;;28.50;56.30;;;;;;4939736;29;20023;-77
2023/09/15 10:16:40;;;;;;;0.00;0.00;;;28.10;57.20;;;;;;4937050;29;20031;-78
2023/09/15 10:19:07;;;;;;;0.00;0.00;;;28.30;56.90;;;;;;4941628;29;20027;-78
2023/09/15 10:21:34;;;;;;;0.00;0.00;;;28.10;57.20;;;;;;4947155;28;20194;-78
2023/09/15 10:24:06;;;;;;;0.00;0.00;;;28.60;57.90;;;;;;4941528;28;20055;-78
2023/09/15 10:26:32;;;;;;;0.00;0.00;;;28.90;57.90;;;;;;4943483;29;20132;-78
2023/09/15 10:29:01;;;;;;;0.00;0.00;;;28.70;57.20;;;;;;4944950;28;20707;-78
2023/09/15 10:31:29;;;;;;;0.00;0.00;;;27.90;57.10;;;;;;4939602;28;20059;-78
2023/09/15 10:33:58;;;;;;;0.00;0.00;;;27.60;56.70;;;;;;4949483;28;20023;-77
2023/09/15 10:36:23;;;;;;;0.00;0.00;;;28.00;58.40;;;;;;4950015;29;20031;-78
2023/09/15 10:38:49;;;;;;;0.00;0.00;;;27.70;58.20;;;;;;4951891;29;20522;-77
2023/09/15 10:41:29;;;;;;;0.00;0.00;;;27.90;58.80;;;;;;4948239;28;20271;-77
2023/09/15 10:43:55;;;;;;;0.00;0.00;;;27.50;58.00;;;;;;4945188;29;20035;-77
2023/09/15 10:46:21;;;;;;;;;;;27.30;57.50;;;;;;4950032;28;20542;-77
2023/09/15 10:48:48;;;;;;;0.00;0.00;;;27.40;59.00;;;;;;4950128;28;20061;-77
2023/09/15 10:51:18;;;;;;;0.00;0.00;;;27.50;59.00;;;;;;4968147;28;20063;-78
2023/09/15 10:53:48;;;;;;;0.00;0.00;;;27.40;57.70;;;;;;4950897;29;20035;-77
2023/09/15 10:56:16;;;;;;;0.00;0.00;;;27.20;58.70;;;;;;4953384;29;20412;-77
2023/09/15 10:58:42;;;;;;;0.00;0.00;;;27.20;60.20;;;;;;4950981;28;20110;-78
2023/09/15 11:01:11;;;;;;;0.00;0.00;;;27.20;59.30;;;;;;4952616;29;20031;-77
2023/09/15 11:03:38;;;;;;;0.00;0.00;;;27.10;59.60;;;;;;4950098;29;20048;-78
2023/09/15 11:06:10;;;;;;;0.00;0.00;;;26.80;59.60;;;;;;4957608;28;20043;-78
2023/09/15 11:08:36;;;;;;;0.00;0.00;;;27.10;59.50;;;;;;4959402;28;20500;-78
2023/09/15 11:11:04;;;;;;;;;;;26.90;59.70;;;;;;4944109;29;20027;-78
2023/09/15 11:13:31;;;;;;;0.00;0.00;;;27.10;60.60;;;;;;4944148;28;20031;-77
2023/09/15 11:15:57;;;;;;;0.00;0.00;;;26.80;59.80;;;;;;4942033;29;20031;-78
2023/09/15 11:18:22;;;;;;;0.00;0.00;;;27.00;61.50;;;;;;4940843;29;20031;-78
2023/09/15 11:20:48;;;;;;;0.00;0.00;;;27.00;62.10;;;;;;4944150;29;20079;-78
2023/09/15 11:23:17;;;;;;;0.00;0.00;;;27.10;61.00;;;;;;4941956;29;20040;-77
2023/09/15 11:25:43;;;;;;;0.00;0.00;;;27.00;62.30;;;;;;4951748;29;20121;-78
2023/09/15 11:28:14;;;;;;;;;;;27.10;62.10;;;;;;4952348;28;21010;-78
2023/09/15 11:30:41;;;;;;;0.00;0.00;;;27.10;61.90;;;;;;4941333;29;19917;-79
2023/09/15 11:33:07;;;;;;;0.00;0.00;;;26.80;60.70;;;;;;4944212;29;20043;-78
2023/09/15 11:35:34;;;;;;;0.00;0.00;;;26.60;61.80;;;;;;4946899;29;20023;-77
2023/09/15 11:38:03;;;;;;;0.00;0.00;;;26.60;62.10;;;;;;4947550;29;20039;-77
2023/09/15 11:40:29;;;;;;;0.00;0.00;;;26.40;61.10;;;;;;4946634;29;20027;-77
2023/09/15 11:43:01;;;;;;;0.00;0.00;;;26.40;62.50;;;;;;4948255;29;20027;-77
2023/09/15 11:45:28;;;;;;;0.00;0.00;;;26.50;62.80;;;;;;4940983;28;20058;-77
2023/09/15 11:47:56;;;;;;;0.00;0.00;;;26.70;63.10;;;;;;4962035;28;20617;-77
2023/09/15 11:50:23;;;;;;;0.00;0.00;;;26.50;62.00;;;;;;4949258;28;20104;-77
2023/09/15 11:52:48;;;;;;;;;;;26.50;62.40;;;;;;4948491;29;20031;-77
2023/09/15 11:55:21;;;;;;;;;;;26.50;64.20;;;;;;4949714;28;19925;-78
2023/09/15 11:57:47;;;;;;;0.00;0.00;;;26.40;63.00;;;;;;4943660;28;19910;-77
2023/09/15 12:00:19;;;;;;;0.00;0.00;;;26.60;64.10;;;;;;4949441;29;20026;-78
2023/09/15 12:02:49;;;;;;;0.00;0.00;;;26.70;63.70;;;;;;4949863;29;20102;-78
2023/09/15 12:05:16;;;;;;;0.00;0.00;;;26.70;63.90;;;;;;4949924;29;20038;-77
2023/09/15 12:07:46;;;;;;;0.00;0.00;;;26.70;63.10;;;;;;4952813;28;20031;-77
2023/09/15 12:10:14;;;;;;;0.00;0.00;;;26.60;62.50;;;;;;4963177;28;20036;-78
2023/09/15 12:12:40;;;;;;;0.00;0.00;;;26.60;65.00;;;;;;4943819;29;20502;-77
2023/09/15 12:15:08;;;;;;;0.00;0.00;;;26.70;64.50;;;;;;4943497;29;20087;-77
2023/09/15 12:17:37;;;;;;;0.00;0.00;;;26.60;64.60;;;;;;4941032;29;20028;-77
2023/09/15 12:20:06;;;;;;;0.00;0.00;;;26.70;66.80;;;;;;4947127;29;20043;-77
2023/09/15 12:22:33;;;;;;;0.00;0.00;;;26.60;65.10;;;;;;4939401;28;20039;-77
2023/09/15 12:24:59;;;;;;;0.00;0.00;;;26.60;63.50;;;;;;4941545;29;20023;-77
2023/09/15 12:27:26;;;;;;;0.00;0.00;;;26.60;64.20;;;;;;4944852;29;20027;-77
2023/09/15 12:29:55;;;;;;;0.00;0.00;;;26.70;65.50;;;;;;4944890;28;20034;-77
2023/09/15 12:32:30;;;;;;;0.00;0.00;;;26.70;64.00;;;;;;4944508;29;20125;-77
2023/09/15 12:34:56;;;;;;;0.00;0.00;;;26.80;64.60;;;;;;4944588;29;20023;-78
2023/09/15 12:37:25;;;;;;;0.00;0.00;;;26.60;63.60;;;;;;4946357;29;20038;-78
2023/09/15 12:39:51;;;;;;;0.00;0.00;;;26.70;65.50;;;;;;4947964;28;20036;-77
2023/09/15 12:42:16;;;;;;;0.00;0.00;;;26.90;68.30;;;;;;4946717;29;20447;-77
2023/09/15 12:44:43;;;;;;;0.00;0.00;;;26.80;64.60;;;;;;4948953;28;20093;-77
2023/09/15 12:47:09;;;;;;;0.00;0.00;;;26.60;63.50;;;;;;4945042;28;20103;-77
2023/09/15 12:49:34;;;;;;;0.00;0.00;;;26.50;63.30;;;;;;4949692;28;20564;-78